Time;durP1;ratioP1;P1;durP2;ratioP2;P2;SDS_P1;SDS_P2;PMS_P1;PMS_P2;Temp;Humidity;BMP_temperature;BMP_pressure;BME280_temperature;BME280_humidity;BME280_pressure;Samples;Min_cycle;Max_cycle;Signal;HPM_P1;HPM_P2
2021/12/07 00:01:47;;;;;;;17.80;9.95;;;1.40;99.90;;;;;;5022370;28;20136;-78
2021/12/07 00:04:13;;;;;;;20.23;11.18;;;1.30;99.90;;;;;;5021945;28;20097;-76
2021/12/07 00:06:40;;;;;;;19.52;11.82;;;1.30;99.90;;;;;;5022501;28;20361;-77
2021/12/07 00:09:09;;;;;;;16.52;9.70;;;1.30;99.90;;;;;;5022472;28;20056;-77
2021/12/07 00:11:36;;;;;;;20.67;10.48;;;1.30;99.90;;;;;;5022443;28;20413;-78
2021/12/07 00:14:11;;;;;;;16.25;9.85;;;1.30;99.90;;;;;;5022480;28;20103;-77
2021/12/07 00:16:37;;;;;;;16.97;9.00;;;1.30;99.90;;;;;;5022359;28;20049;-79
2021/12/07 00:19:04;;;;;;;17.98;8.27;;;1.40;99.90;;;;;;5022724;28;20028;-79
2021/12/07 00:21:30;;;;;;;16.85;9.40;;;1.30;99.90;;;;;;5022393;28;20049;-77
2021/12/07 00:23:56;;;;;;;16.88;8.85;;;1.30;99.90;;;;;;5022361;28;20221;-78
2021/12/07 00:26:22;;;;;;;19.27;9.85;;;1.30;99.90;;;;;;5022398;28;20036;-77
2021/12/07 00:28:50;;;;;;;16.73;9.38;;;1.30;99.90;;;;;;5023103;28;20064;-76
2021/12/07 00:31:26;;;;;;;15.10;9.32;;;1.30;99.90;;;;;;5021663;28;20040;-76
2021/12/07 00:34:08;;;;;;;19.55;10.43;;;1.40;99.90;;;;;;5026007;28;20379;-78
2021/12/07 00:36:36;;;;;;;18.00;10.13;;;1.40;99.90;;;;;;5026002;28;20017;-77
2021/12/07 00:39:05;;;;;;;18.98;10.27;;;1.30;99.90;;;;;;5025498;28;20075;-77
2021/12/07 00:41:31;;;;;;;17.48;10.20;;;1.20;99.90;;;;;;5023635;28;20321;-77
2021/12/07 00:43:57;;;;;;;19.83;9.43;;;1.30;99.90;;;;;;5021705;28;20021;-77
2021/12/07 00:46:25;;;;;;;19.27;10.20;;;1.40;99.90;;;;;;5021642;28;20115;-76
2021/12/07 00:48:51;;;;;;;18.02;9.38;;;1.20;99.90;;;;;;5021858;28;20010;-77
2021/12/07 00:51:17;;;;;;;16.58;8.85;;;1.20;99.90;;;;;;5020234;28;20045;-77
2021/12/07 00:53:42;;;;;;;15.50;8.77;;;1.20;99.90;;;;;;5021360;28;20068;-76
2021/12/07 00:56:08;;;;;;;15.60;9.32;;;1.40;99.90;;;;;;5021159;28;20034;-78
2021/12/07 00:58:34;;;;;;;15.10;7.95;;;1.20;99.90;;;;;;5021364;28;20056;-76
2021/12/07 01:01:05;;;;;;;14.05;8.43;;;1.20;99.90;;;;;;5019557;28;20119;-77
2021/12/07 01:03:31;;;;;;;15.88;8.43;;;1.20;99.90;;;;;;5021434;28;20336;-76
2021/12/07 01:06:14;;;;;;;13.77;7.82;;;1.10;99.90;;;;;;5020950;28;20373;-76
2021/12/07 01:25:25;;;;;;;12.95;6.75;;;1.20;99.90;;;;;;5020527;28;20048;-76
2021/12/07 01:27:54;;;;;;;10.50;6.38;;;1.20;99.90;;;;;;5018990;28;20504;-77
2021/12/07 01:30:32;;;;;;;10.23;6.38;;;1.10;99.90;;;;;;5020318;28;20032;-76
2021/12/07 01:33:18;;;;;;;12.32;6.00;;;1.20;99.90;;;;;;5020850;28;20104;-76
2021/12/07 01:59:51;;;;;;;16.95;8.32;;;1.00;99.90;;;;;;4997087;28;20096;-78
2021/12/07 02:02:19;;;;;;;19.60;7.97;;;1.10;99.90;;;;;;4997482;28;20181;-77
2021/12/07 02:04:45;;;;;;;12.00;6.78;;;1.00;99.90;;;;;;4997275;28;20519;-78
2021/12/07 02:07:13;;;;;;;11.07;6.22;;;1.00;99.90;;;;;;4997470;28;20335;-76
2021/12/07 02:09:43;;;;;;;17.58;7.72;;;1.00;99.90;;;;;;4997757;28;20105;-76
2021/12/07 02:12:12;;;;;;;11.88;6.10;;;1.00;99.90;;;;;;4996869;28;20585;-76
2021/12/07 02:14:39;;;;;;;9.20;5.90;;;1.00;99.90;;;;;;4997368;28;20671;-77
2021/12/07 02:17:16;;;;;;;14.75;7.47;;;1.00;99.90;;;;;;4997506;28;20235;-76
2021/12/07 02:19:42;;;;;;;15.32;7.85;;;1.80;99.90;;;;;;4997434;28;20559;-76
2021/12/07 02:22:10;;;;;;;12.90;8.00;;;1.00;99.90;;;;;;4997169;28;20038;-78
2021/12/07 02:24:36;;;;;;;14.07;7.55;;;1.00;99.90;;;;;;4998415;28;20038;-76
2021/12/07 02:27:03;;;;;;;12.48;7.25;;;0.90;99.90;;;;;;5002752;28;20033;-81
2021/12/07 02:29:29;;;;;;;13.20;6.68;;;0.90;99.90;;;;;;5002348;28;20511;-79
2021/12/07 02:31:56;;;;;;;10.57;6.80;;;0.90;99.90;;;;;;5019247;28;20105;-78
2021/12/07 02:34:23;;;;;;;9.35;6.28;;;0.90;99.90;;;;;;5025609;28;20013;-76
2021/12/07 02:36:50;;;;;;;10.13;6.28;;;0.90;99.90;;;;;;5019470;28;20531;-77
2021/12/07 02:39:16;;;;;;;11.25;6.78;;;0.90;99.90;;;;;;5018326;28;20333;-75
2021/12/07 02:41:42;;;;;;;8.80;6.03;;;0.90;99.90;;;;;;5020048;28;20514;-76
2021/12/07 02:44:09;;;;;;;11.48;6.28;;;0.90;99.90;;;;;;5019461;28;20029;-77
2021/12/07 02:46:39;;;;;;;9.35;6.63;;;0.90;99.90;;;;;;5019114;28;20060;-77
2021/12/07 02:49:06;;;;;;;9.25;6.03;;;0.90;99.90;;;;;;5017001;28;20029;-78
2021/12/07 02:51:32;;;;;;;8.77;5.95;;;0.80;99.90;;;;;;5019467;28;20026;-75
2021/12/07 02:53:58;;;;;;;10.93;6.32;;;0.80;99.90;;;;;;5019306;28;20021;-75
2021/12/07 02:56:24;;;;;;;10.60;6.53;;;0.80;99.90;;;;;;5018748;28;20465;-76
2021/12/07 02:58:55;;;;;;;8.85;6.22;;;0.80;99.90;;;;;;5018919;28;20333;-77
2021/12/07 03:01:26;;;;;;;9.93;6.80;;;0.80;99.90;;;;;;5019157;28;20426;-76
2021/12/07 03:04:02;;;;;;;10.45;6.90;;;0.80;99.90;;;;;;5018792;28;20446;-78
2021/12/07 03:06:45;;;;;;;;;;;0.80;99.90;;;;;;5019682;28;20492;-77
2021/12/07 03:28:07;;;;;;;9.52;6.78;;;1.40;99.90;;;;;;5022849;28;20091;-78
2021/12/07 03:30:34;;;;;;;11.30;7.22;;;0.90;99.90;;;;;;5020935;28;20022;-78
2021/12/07 03:33:02;;;;;;;12.23;7.38;;;0.80;99.90;;;;;;5022585;28;20021;-78
2021/12/07 03:35:29;;;;;;;13.07;8.00;;;0.80;99.90;;;;;;5021223;28;20045;-78
2021/12/07 03:37:55;;;;;;;12.73;7.65;;;0.80;99.90;;;;;;5021025;28;20014;-77
2021/12/07 03:40:22;;;;;;;14.18;8.52;;;1.30;99.90;;;;;;5020793;28;20049;-78
2021/12/07 03:42:47;;;;;;;11.50;7.53;;;0.80;99.90;;;;;;5021798;28;20519;-75
2021/12/07 03:45:14;;;;;;;12.38;8.02;;;0.90;99.90;;;;;;5022286;28;20087;-76
2021/12/07 03:47:40;;;;;;;13.05;8.10;;;0.90;99.90;;;;;;5022163;28;20480;-76
2021/12/07 03:50:07;;;;;;;12.50;8.25;;;1.60;99.90;;;;;;5022347;28;20318;-77
2021/12/07 03:52:33;;;;;;;13.80;7.85;;;0.90;99.90;;;;;;5022497;28;20295;-76
2021/12/07 03:54:59;;;;;;;14.40;8.27;;;0.90;99.90;;;;;;5021570;28;20034;-76
2021/12/07 03:57:25;;;;;;;12.80;8.02;;;0.80;99.90;;;;;;5023212;28;20029;-78
2021/12/07 03:59:51;;;;;;;13.23;7.85;;;0.80;99.90;;;;;;5023463;28;20038;-78
2021/12/07 04:02:16;;;;;;;13.40;7.68;;;0.80;99.90;;;;;;5020917;28;20286;-78
2021/12/07 04:04:42;;;;;;;12.35;7.70;;;0.70;99.90;;;;;;5021718;28;20028;-76
2021/12/07 04:07:08;;;;;;;13.13;8.07;;;0.60;99.90;;;;;;5021564;28;20025;-76
2021/12/07 04:09:34;;;;;;;12.68;8.38;;;0.70;99.90;;;;;;5021252;28;20018;-77
2021/12/07 04:12:00;;;;;;;12.13;7.82;;;0.60;99.90;;;;;;5021714;28;20515;-77
2021/12/07 04:14:26;;;;;;;13.98;8.82;;;0.60;99.90;;;;;;5021764;28;20026;-76
2021/12/07 04:16:52;;;;;;;16.45;8.45;;;0.60;99.90;;;;;;5021616;28;20285;-77
2021/12/07 04:19:18;;;;;;;13.20;8.43;;;0.60;99.90;;;;;;5021920;28;20326;-76
2021/12/07 04:21:44;;;;;;;13.00;8.50;;;0.60;99.90;;;;;;5020293;28;20484;-77
2021/12/07 04:24:10;;;;;;;14.38;8.50;;;1.60;99.90;;;;;;5020833;28;20109;-74
2021/12/07 04:26:36;;;;;;;15.20;8.93;;;0.60;99.90;;;;;;5021538;28;20419;-76
2021/12/07 04:29:02;;;;;;;13.18;8.10;;;2.20;99.90;;;;;;5021838;28;20018;-76
2021/12/07 04:31:28;;;;;;;12.43;8.40;;;0.60;99.90;;;;;;5021981;28;20040;-76
2021/12/07 04:33:54;;;;;;;15.25;8.38;;;0.60;99.90;;;;;;5021776;28;20091;-77
2021/12/07 04:36:19;;;;;;;14.48;8.38;;;0.70;99.90;;;;;;5020791;28;20109;-77
2021/12/07 04:38:45;;;;;;;12.70;8.15;;;0.60;99.90;;;;;;5022060;28;20104;-76
2021/12/07 04:41:11;;;;;;;14.85;8.35;;;0.60;99.90;;;;;;5019877;28;20108;-76
2021/12/07 04:43:39;;;;;;;13.60;8.75;;;0.60;99.90;;;;;;5020740;28;20041;-76
2021/12/07 04:59:38;;;;;;;14.93;8.27;;;0.60;99.90;;;;;;5021916;28;20277;-75
2021/12/07 05:02:05;;;;;;;13.43;8.70;;;0.60;99.90;;;;;;5022602;28;20017;-75
2021/12/07 05:04:34;;;;;;;13.15;8.55;;;0.50;99.90;;;;;;5019864;28;20466;-77
2021/12/07 05:07:16;;;;;;;15.43;8.63;;;0.50;99.90;;;;;;5020949;28;20322;-78
2021/12/07 05:14:40;;;;;;;17.58;9.43;;;0.50;99.90;;;;;;5023160;28;20396;-76
2021/12/07 05:25:36;;;;;;;14.27;8.68;;;0.50;99.90;;;;;;5021641;28;20040;-77
2021/12/07 05:38:59;;;;;;;13.98;9.23;;;0.60;99.90;;;;;;5022978;28;20048;-77
2021/12/07 05:41:25;;;;;;;16.83;10.23;;;0.50;99.90;;;;;;5027142;28;20030;-78
2021/12/07 05:43:51;;;;;;;17.13;10.40;;;0.50;99.90;;;;;;5027229;28;20025;-82
2021/12/07 05:46:17;;;;;;;16.35;10.27;;;0.50;99.90;;;;;;5026486;28;20393;-77
2021/12/07 05:48:43;;;;;;;18.65;11.48;;;0.50;99.90;;;;;;5026023;28;20326;-77
2021/12/07 05:51:09;;;;;;;15.70;10.32;;;0.60;99.90;;;;;;5022211;28;20083;-78
2021/12/07 05:53:35;;;;;;;16.42;10.30;;;0.60;99.90;;;;;;5018120;28;20037;-76
2021/12/07 05:56:02;;;;;;;15.23;10.00;;;0.60;99.90;;;;;;5020414;28;20108;-78
2021/12/07 05:58:29;;;;;;;17.55;11.02;;;0.60;99.90;;;;;;5020581;28;20056;-77
2021/12/07 06:00:57;;;;;;;20.35;11.55;;;0.60;99.90;;;;;;5018537;28;20048;-76
2021/12/07 06:03:25;;;;;;;20.75;12.10;;;0.60;99.90;;;;;;5019556;28;20243;-76
2021/12/07 06:05:53;;;;;;;22.08;12.18;;;0.50;99.90;;;;;;5019677;28;20299;-76
2021/12/07 06:08:19;;;;;;;20.30;11.80;;;0.60;99.90;;;;;;5019254;28;20116;-76
2021/12/07 06:10:45;;;;;;;21.00;11.55;;;0.60;99.90;;;;;;5019155;28;20037;-76
2021/12/07 06:13:11;;;;;;;24.67;13.65;;;0.60;99.90;;;;;;5019468;28;20409;-77
2021/12/07 06:15:39;;;;;;;21.08;12.88;;;0.60;99.90;;;;;;5019632;28;20482;-75
2021/12/07 06:18:05;;;;;;;24.00;13.35;;;0.60;99.90;;;;;;5019911;28;20307;-76
2021/12/07 06:20:31;;;;;;;22.42;13.55;;;0.60;99.90;;;;;;5018447;28;20466;-76
2021/12/07 06:22:57;;;;;;;25.40;15.02;;;0.70;99.90;;;;;;5019219;28;20026;-76
2021/12/07 06:25:23;;;;;;;21.42;13.35;;;0.70;99.90;;;;;;5019041;28;20030;-76
2021/12/07 06:27:48;;;;;;;25.38;13.80;;;0.60;99.90;;;;;;5018048;28;20108;-79
2021/12/07 06:30:14;;;;;;;23.10;13.63;;;0.60;99.90;;;;;;5019435;28;20029;-76
2021/12/07 06:32:41;;;;;;;25.45;14.77;;;1.40;99.90;;;;;;5019274;28;20049;-76
2021/12/07 06:35:09;;;;;;;24.02;14.43;;;0.50;99.90;;;;;;5017543;28;20033;-76
2021/12/07 06:37:36;;;;;;;23.10;14.07;;;0.50;99.90;;;;;;5018945;28;20021;-75
2021/12/07 06:40:03;;;;;;;24.40;13.57;;;0.50;99.90;;;;;;5018686;28;20475;-74
2021/12/07 06:42:30;;;;;;;24.77;13.68;;;0.50;99.90;;;;;;5019364;28;20044;-77
2021/12/07 06:44:56;;;;;;;21.27;12.10;;;0.50;99.90;;;;;;5018991;28;20109;-77
2021/12/07 06:47:21;;;;;;;25.27;12.95;;;0.50;99.90;;;;;;5019092;28;20508;-76
2021/12/07 06:49:48;;;;;;;22.15;11.73;;;0.50;99.90;;;;;;5018862;28;20028;-76
2021/12/07 06:52:14;;;;;;;23.58;12.82;;;0.50;99.90;;;;;;5019088;28;20277;-76
2021/12/07 06:54:40;;;;;;;22.15;13.73;;;0.60;99.90;;;;;;5018583;28;20476;-76
2021/12/07 06:57:05;;;;;;;21.85;12.05;;;0.60;99.90;;;;;;5018750;28;20036;-75
2021/12/07 06:59:36;;;;;;;22.83;13.15;;;0.60;99.90;;;;;;5016302;28;20314;-76
2021/12/07 07:02:02;;;;;;;21.85;12.82;;;0.70;99.90;;;;;;5017261;28;20025;-77
2021/12/07 07:04:28;;;;;;;26.27;14.90;;;0.60;99.90;;;;;;5018963;28;20108;-77
2021/12/07 07:06:54;;;;;;;25.58;14.05;;;0.70;99.90;;;;;;5018820;28;20255;-76
2021/12/07 07:09:21;;;;;;;28.90;15.40;;;0.60;99.90;;;;;;5019127;28;20227;-76
2021/12/07 07:11:47;;;;;;;32.55;16.85;;;0.60;99.90;;;;;;5020177;28;20090;-76
2021/12/07 07:14:15;;;;;;;27.85;15.18;;;0.90;99.90;;;;;;5021518;28;20676;-76
2021/12/07 07:16:41;;;;;;;35.65;18.30;;;0.60;99.90;;;;;;5020879;28;20553;-77
2021/12/07 07:19:06;;;;;;;36.47;20.27;;;2.20;99.90;;;;;;5021206;28;20037;-77
2021/12/07 07:21:32;;;;;;;31.00;17.08;;;0.70;99.90;;;;;;5018867;28;20026;-76
2021/12/07 07:23:58;;;;;;;28.17;16.23;;;2.00;99.90;;;;;;5019044;28;20321;-76
2021/12/07 07:26:23;;;;;;;30.45;16.70;;;0.70;99.90;;;;;;5018528;28;20033;-76
2021/12/07 07:28:49;;;;;;;33.83;17.48;;;1.10;99.90;;;;;;5018458;28;20464;-79
2021/12/07 07:31:15;;;;;;;34.38;16.83;;;0.80;99.90;;;;;;5018646;28;20029;-76
2021/12/07 07:33:41;;;;;;;34.22;17.75;;;0.70;99.90;;;;;;5019212;28;20046;-77
2021/12/07 07:36:08;;;;;;;35.40;18.35;;;0.70;99.90;;;;;;5018639;28;20033;-76
2021/12/07 07:38:34;;;;;;;30.13;16.50;;;0.70;99.90;;;;;;5020904;28;20659;-76
2021/12/07 07:41:00;;;;;;;33.15;15.80;;;0.60;99.90;;;;;;5019795;28;20064;-76
2021/12/07 07:43:26;;;;;;;31.95;16.40;;;0.60;99.90;;;;;;5020339;28;20029;-75
2021/12/07 07:45:53;;;;;;;33.75;16.90;;;0.60;99.90;;;;;;5019603;28;20045;-78
2021/12/07 07:48:21;;;;;;;33.28;15.98;;;1.10;99.90;;;;;;5019416;28;20017;-78
2021/12/07 07:50:49;;;;;;;30.27;16.30;;;0.60;99.90;;;;;;5019354;28;20037;-76
2021/12/07 07:53:16;;;;;;;34.30;17.10;;;0.70;99.90;;;;;;5019141;28;20048;-77
2021/12/07 07:55:42;;;;;;;29.55;16.65;;;0.70;99.90;;;;;;5019905;28;20029;-76
2021/12/07 07:58:10;;;;;;;35.13;17.00;;;0.80;99.90;;;;;;5019601;28;20033;-75
2021/12/07 08:00:37;;;;;;;27.77;14.88;;;0.70;99.90;;;;;;5018559;28;20038;-75
2021/12/07 08:03:03;;;;;;;31.63;16.13;;;0.60;99.90;;;;;;5019458;28;20021;-80
2021/12/07 08:05:30;;;;;;;28.45;14.50;;;0.70;99.90;;;;;;5018010;28;20048;-76
2021/12/07 08:07:56;;;;;;;27.08;14.48;;;0.70;99.90;;;;;;5020342;28;20032;-80
2021/12/07 08:10:28;;;;;;;28.83;15.40;;;0.70;99.90;;;;;;5019738;28;20113;-79
2021/12/07 08:13:02;;;;;;;30.55;15.20;;;0.60;99.90;;;;;;5024836;28;20619;-76
2021/12/07 08:15:30;;;;;;;31.58;17.85;;;0.70;99.90;;;;;;5020693;28;20432;-76
2021/12/07 08:17:56;;;;;;;31.25;16.33;;;0.70;99.90;;;;;;5022446;28;20037;-79
2021/12/07 08:20:23;;;;;;;33.80;16.48;;;0.70;99.90;;;;;;5023493;28;20025;-77
2021/12/07 08:22:48;;;;;;;37.50;19.10;;;1.80;99.90;;;;;;5025171;28;20233;-76
2021/12/07 08:25:16;;;;;;;45.08;19.42;;;0.60;99.90;;;;;;5028722;28;20558;-75
2021/12/07 08:27:42;;;;;;;41.53;18.05;;;0.60;99.90;;;;;;5029931;28;20018;-79
2021/12/07 08:30:10;;;;;;;29.95;15.77;;;0.60;99.90;;;;;;5028239;28;20022;-80
2021/12/07 08:32:36;;;;;;;24.38;14.10;;;0.60;99.90;;;;;;5028266;28;20038;-76
2021/12/07 08:35:02;;;;;;;27.17;14.55;;;0.70;99.90;;;;;;5030562;28;20036;-75
2021/12/07 08:37:28;;;;;;;27.25;15.30;;;0.60;99.90;;;;;;5028773;28;20021;-76
2021/12/07 08:39:54;;;;;;;31.80;16.33;;;0.60;99.90;;;;;;5025840;28;20048;-78
2021/12/07 08:42:20;;;;;;;33.38;18.02;;;0.70;99.90;;;;;;5028194;28;20026;-80
2021/12/07 08:44:46;;;;;;;43.30;20.73;;;0.80;99.90;;;;;;5027043;28;20033;-77
2021/12/07 08:47:13;;;;;;;40.15;20.25;;;0.80;99.90;;;;;;5026822;28;20022;-81
2021/12/07 08:49:39;;;;;;;36.22;17.67;;;1.90;99.90;;;;;;5025252;28;20018;-75
2021/12/07 08:52:05;;;;;;;28.63;15.85;;;0.90;99.90;;;;;;5026929;28;20079;-78
2021/12/07 08:59:45;;;;;;;37.63;18.73;;;0.80;99.90;;;;;;5030453;28;20049;-77
2021/12/07 09:02:23;;;;;;;32.03;15.57;;;0.90;99.90;;;;;;5031367;28;20041;-76
2021/12/07 09:04:50;;;;;;;30.10;15.85;;;0.80;99.90;;;;;;5032127;28;20060;-75
2021/12/07 09:07:16;;;;;;;27.08;15.02;;;0.80;99.90;;;;;;5031784;28;20036;-79
2021/12/07 09:09:43;;;;;;;29.33;16.52;;;0.80;99.90;;;;;;5029259;28;20022;-76
2021/12/07 09:12:10;;;;;;;26.15;14.68;;;0.80;99.90;;;;;;5028109;28;20033;-78
2021/12/07 09:14:37;;;;;;;28.15;14.95;;;0.80;99.90;;;;;;5030045;28;20025;-77
2021/12/07 09:17:06;;;;;;;25.27;14.27;;;0.80;99.90;;;;;;5032757;28;20080;-79
2021/12/07 09:19:32;;;;;;;26.80;14.82;;;0.70;99.90;;;;;;5027233;28;20033;-77
2021/12/07 09:21:58;;;;;;;28.90;15.57;;;0.70;99.90;;;;;;5025874;28;20056;-77
2021/12/07 09:24:25;;;;;;;36.47;17.63;;;0.80;99.90;;;;;;5025217;28;20678;-75
2021/12/07 09:26:51;;;;;;;26.90;14.77;;;0.90;99.90;;;;;;5026140;28;20057;-76
2021/12/07 09:29:17;;;;;;;23.38;12.90;;;0.80;99.80;;;;;;5025793;28;20068;-77
2021/12/07 09:31:44;;;;;;;30.25;15.68;;;0.80;99.70;;;;;;5026736;28;20293;-76
2021/12/07 09:34:11;;;;;;;26.52;15.30;;;0.80;99.90;;;;;;5025964;28;20037;-76
2021/12/07 09:36:38;;;;;;;31.80;16.27;;;0.80;99.90;;;;;;5026533;28;20014;-76
2021/12/07 09:39:06;;;;;;;32.17;17.55;;;1.30;99.90;;;;;;5028115;28;20022;-77
2021/12/07 09:41:32;;;;;;;25.83;14.50;;;0.80;99.90;;;;;;5025859;28;20026;-79
2021/12/07 09:43:58;;;;;;;29.10;15.07;;;0.80;99.90;;;;;;5028888;28;20026;-76
2021/12/07 09:46:23;;;;;;;33.45;15.60;;;0.80;99.90;;;;;;5027674;28;20545;-78
2021/12/07 09:48:49;;;;;;;31.15;15.82;;;0.80;99.90;;;;;;5027687;28;20704;-78
2021/12/07 09:51:19;;;;;;;35.08;17.20;;;0.80;99.90;;;;;;5026558;28;20222;-76
2021/12/07 09:53:46;;;;;;;37.53;16.75;;;0.70;99.80;;;;;;5026169;28;20028;-79
2021/12/07 09:56:12;;;;;;;31.02;16.08;;;0.80;99.90;;;;;;5028665;28;20049;-76
2021/12/07 09:58:39;;;;;;;33.15;15.27;;;0.70;99.90;;;;;;5024243;28;20044;-79
2021/12/07 10:01:08;;;;;;;37.45;18.20;;;0.70;99.80;;;;;;5024246;28;20088;-77
2021/12/07 10:03:34;;;;;;;29.20;14.48;;;2.80;99.90;;;;;;5025740;28;20029;-77
2021/12/07 10:06:00;;;;;;;31.80;15.77;;;0.50;99.90;;;;;;5025917;28;20049;-77
2021/12/07 10:08:26;;;;;;;29.15;14.32;;;0.80;99.90;;;;;;5026793;28;20026;-78
2021/12/07 10:10:55;;;;;;;28.52;14.73;;;0.50;99.90;;;;;;5023793;28;20039;-77
2021/12/07 10:13:23;;;;;;;29.73;15.07;;;0.70;99.90;;;;;;5023922;28;20026;-78
2021/12/07 10:15:51;;;;;;;28.13;14.93;;;0.40;99.90;;;;;;5026164;28;20056;-77
2021/12/07 10:18:24;;;;;;;26.58;12.70;;;0.50;99.90;;;;;;5024677;28;20021;-77
2021/12/07 10:20:59;;;;;;;28.67;14.40;;;0.50;99.70;;;;;;5026154;28;20083;-78
2021/12/07 10:23:28;;;;;;;37.43;16.00;;;0.60;99.90;;;;;;5024937;28;20025;-77
2021/12/07 10:26:05;;;;;;;31.33;14.27;;;0.50;99.90;;;;;;5025985;28;20304;-76
2021/12/07 10:28:32;;;;;;;25.95;13.45;;;0.60;99.90;;;;;;5026341;28;20036;-75
2021/12/07 10:31:13;;;;;;;32.70;15.30;;;1.30;99.70;;;;;;5030547;28;20022;-79
2021/12/07 10:33:47;;;;;;;26.02;12.85;;;0.60;99.90;;;;;;5030006;28;20062;-80
2021/12/07 10:36:17;;;;;;;27.17;13.30;;;0.60;99.50;;;;;;5030488;28;20025;-76
2021/12/07 10:38:54;;;;;;;34.53;15.10;;;0.70;99.90;;;;;;5026931;28;20048;-78
2021/12/07 10:41:24;;;;;;;23.60;13.73;;;0.70;99.90;;;;;;5023592;28;20029;-76
2021/12/07 10:43:53;;;;;;;24.00;13.65;;;0.90;99.60;;;;;;5022949;28;20706;-75
2021/12/07 10:46:27;;;;;;;25.65;13.98;;;0.90;99.30;;;;;;5022634;28;20029;-75
2021/12/07 10:49:26;;;;;;;24.65;12.82;;;0.90;99.30;;;;;;5024776;28;20045;-77
2021/12/07 10:52:26;;;;;;;27.58;14.45;;;0.80;99.20;;;;;;5023827;28;20025;-75
2021/12/07 10:55:15;;;;;;;30.23;14.38;;;0.90;99.40;;;;;;5020715;28;20104;-78
2021/12/07 10:57:55;;;;;;;25.52;13.57;;;0.30;99.10;;;;;;5023551;28;20716;-78
2021/12/07 11:00:25;;;;;;;24.35;12.93;;;1.00;99.00;;;;;;5023887;28;20037;-79
2021/12/07 11:03:14;;;;;;;24.95;13.13;;;0.90;98.90;;;;;;5029104;28;20639;-78
2021/12/07 11:05:46;;;;;;;25.75;13.88;;;1.00;99.00;;;;;;5025116;28;20022;-75
2021/12/07 11:08:12;;;;;;;25.42;12.50;;;1.00;98.60;;;;;;5020315;28;20104;-77
2021/12/07 11:10:45;;;;;;;29.00;12.30;;;0.90;98.60;;;;;;5024116;28;20027;-76
2021/12/07 11:13:19;;;;;;;23.10;12.00;;;0.80;98.70;;;;;;5026879;28;20036;-76
2021/12/07 11:15:51;;;;;;;26.10;12.95;;;0.90;99.00;;;;;;5023002;28;20020;-76
2021/12/07 11:18:21;;;;;;;21.98;11.82;;;1.00;98.80;;;;;;5022170;28;20032;-77
2021/12/07 11:40:17;;;;;;;26.30;13.10;;;0.80;99.10;;;;;;5058116;28;20387;-76
2021/12/07 11:42:43;;;;;;;26.10;12.88;;;0.90;98.80;;;;;;5060669;28;20013;-76
2021/12/07 11:45:34;;;;;;;23.33;12.30;;;0.80;98.60;;;;;;5060588;28;20028;-79
2021/12/07 11:48:03;;;;;;;20.30;11.38;;;0.80;98.60;;;;;;5059389;28;20021;-78
2021/12/07 11:50:46;;;;;;;23.40;12.10;;;0.90;98.50;;;;;;5060424;28;20040;-78
2021/12/07 11:53:17;;;;;;;24.35;12.85;;;1.00;98.70;;;;;;5060873;28;20049;-77
2021/12/07 11:55:47;;;;;;;23.73;12.20;;;1.10;98.70;;;;;;5042655;28;20036;-77
2021/12/07 11:58:14;;;;;;;24.63;12.77;;;1.10;98.00;;;;;;5059899;28;20033;-76
2021/12/07 12:00:43;;;;;;;23.38;12.05;;;1.00;97.80;;;;;;5042517;28;20589;-79
2021/12/07 12:03:12;;;;;;;23.42;11.98;;;1.10;98.40;;;;;;5043854;28;20021;-77
2021/12/07 12:05:41;;;;;;;27.42;13.70;;;1.20;98.20;;;;;;5043132;28;20028;-77
2021/12/07 12:08:09;;;;;;;22.83;13.27;;;1.10;98.30;;;;;;5060890;28;20053;-77
2021/12/07 12:10:41;;;;;;;27.38;13.15;;;1.00;98.60;;;;;;5060983;28;20047;-77
2021/12/07 12:13:21;;;;;;;23.75;12.60;;;1.00;98.50;;;;;;5061179;28;20013;-77
2021/12/07 12:16:25;;;;;;;21.15;11.98;;;1.10;98.20;;;;;;5062451;28;20668;-75
2021/12/07 12:19:12;;;;;;;30.17;14.02;;;1.10;98.40;;;;;;5019637;28;20152;-78
2021/12/07 12:21:47;;;;;;;26.15;14.82;;;1.10;98.90;;;;;;5005571;28;20053;-76
2021/12/07 12:24:18;;;;;;;25.58;13.15;;;1.10;98.60;;;;;;5021278;28;20274;-77
2021/12/07 12:26:45;;;;;;;27.02;13.50;;;1.10;98.40;;;;;;5021537;28;20033;-77
2021/12/07 12:29:16;;;;;;;23.50;12.68;;;1.00;98.70;;;;;;5021872;28;20037;-76
2021/12/07 12:31:49;;;;;;;31.40;16.08;;;1.00;98.90;;;;;;5004057;28;20114;-78
2021/12/07 12:34:22;;;;;;;27.00;13.95;;;1.00;99.40;;;;;;5024746;28;20125;-80
2021/12/07 12:37:04;;;;;;;27.13;13.35;;;1.00;98.70;;;;;;5019666;28;20033;-78
2021/12/07 12:40:02;;;;;;;26.00;13.85;;;1.00;99.00;;;;;;5019972;28;20062;-75
2021/12/07 12:42:35;;;;;;;24.08;12.98;;;1.10;98.90;;;;;;5005582;28;20034;-75
2021/12/07 12:45:27;;;;;;;23.08;12.63;;;1.10;98.70;;;;;;5017933;28;20030;-76
2021/12/07 12:47:58;;;;;;;23.13;12.02;;;1.10;98.60;;;;;;5018385;28;20575;-75
2021/12/07 12:50:49;;;;;;;18.75;10.85;;;0.90;98.60;;;;;;5046049;28;20492;-76
2021/12/07 12:53:26;;;;;;;23.17;13.10;;;1.00;98.70;;;;;;5029286;28;20229;-77
2021/12/07 12:55:57;;;;;;;26.85;13.30;;;1.00;98.90;;;;;;5046229;28;20431;-75
2021/12/07 12:58:30;;;;;;;26.65;13.93;;;1.00;99.20;;;;;;5028082;28;20029;-75
2021/12/07 13:01:18;;;;;;;24.38;13.10;;;1.00;99.30;;;;;;5045428;28;20021;-76
2021/12/07 13:03:43;;;;;;;25.42;13.48;;;0.90;99.20;;;;;;5045549;28;20063;-76
2021/12/07 13:06:15;;;;;;;23.70;12.70;;;1.00;99.20;;;;;;5044716;28;20018;-76
2021/12/07 13:08:52;;;;;;;25.20;13.52;;;1.00;99.30;;;;;;5027411;28;20036;-78
2021/12/07 13:11:41;;;;;;;23.20;13.10;;;1.10;99.10;;;;;;5045442;28;20096;-76
2021/12/07 13:14:12;;;;;;;28.60;14.60;;;1.10;99.10;;;;;;5045306;28;20104;-76
2021/12/07 13:16:48;;;;;;;25.88;14.35;;;1.10;99.00;;;;;;5043852;28;20033;-79
2021/12/07 13:19:14;;;;;;;23.35;12.23;;;1.10;99.20;;;;;;5043832;28;20033;-75
2021/12/07 13:21:42;;;;;;;24.00;11.35;;;0.90;98.60;;;;;;5045090;28;20483;-75
2021/12/07 13:24:31;;;;;;;22.05;11.45;;;0.90;98.80;;;;;;5045360;28;20033;-78
2021/12/07 13:26:57;;;;;;;22.85;11.70;;;0.90;99.40;;;;;;5045891;28;20075;-75
2021/12/07 13:29:26;;;;;;;23.02;12.05;;;0.90;99.20;;;;;;5045864;28;20025;-76
2021/12/07 13:31:56;;;;;;;24.60;12.68;;;0.80;99.10;;;;;;5044308;28;20044;-78
2021/12/07 13:34:37;;;;;;;27.88;12.40;;;0.80;99.20;;;;;;5044000;28;20124;-78
2021/12/07 13:37:06;;;;;;;25.02;12.75;;;0.80;99.50;;;;;;5047688;28;20017;-77
2021/12/07 13:39:40;;;;;;;23.45;12.38;;;0.80;99.60;;;;;;5052077;28;20061;-76
2021/12/07 13:42:11;;;;;;;33.67;14.98;;;0.70;99.50;;;;;;5045944;28;20025;-77
2021/12/07 13:44:37;;;;;;;29.27;14.10;;;0.80;99.60;;;;;;5049657;28;20098;-75
2021/12/07 13:47:07;;;;;;;33.65;17.20;;;0.80;99.80;;;;;;5052756;28;20348;-75
2021/12/07 13:49:34;;;;;;;29.20;14.25;;;0.80;99.90;;;;;;5051195;28;20040;-78
2021/12/07 13:52:01;;;;;;;28.65;14.75;;;0.80;99.90;;;;;;5053364;28;20032;-76
2021/12/07 13:54:27;;;;;;;26.35;14.40;;;0.80;99.90;;;;;;5058597;28;20040;-75
2021/12/07 13:56:54;;;;;;;22.50;12.18;;;0.80;99.90;;;;;;5036593;28;20155;-76
2021/12/07 13:59:26;;;;;;;22.35;12.10;;;0.70;99.50;;;;;;5033778;28;20595;-77
2021/12/07 14:01:56;;;;;;;19.75;10.38;;;0.70;99.80;;;;;;5030755;28;20055;-77
2021/12/07 14:04:28;;;;;;;22.90;12.45;;;0.60;99.60;;;;;;5049763;28;20029;-78
2021/12/07 14:06:54;;;;;;;20.88;11.20;;;0.60;99.90;;;;;;5031792;28;20017;-75
2021/12/07 14:09:21;;;;;;;22.13;12.63;;;0.50;99.70;;;;;;5048330;28;20078;-78
2021/12/07 14:11:56;;;;;;;24.80;13.02;;;0.50;99.90;;;;;;5026941;28;20105;-77
2021/12/07 14:14:23;;;;;;;23.20;13.40;;;0.50;99.90;;;;;;5046743;28;20036;-77
2021/12/07 14:16:49;;;;;;;25.63;13.38;;;0.50;99.90;;;;;;5047309;28;20071;-80
2021/12/07 14:19:15;;;;;;;22.50;11.32;;;0.60;99.80;;;;;;5031332;28;20029;-80
2021/12/07 14:21:43;;;;;;;20.88;12.20;;;0.50;99.80;;;;;;5052083;28;20162;-80
2021/12/07 14:24:15;;;;;;;21.08;12.25;;;0.60;99.80;;;;;;5033204;28;20021;-80
2021/12/07 14:26:42;;;;;;;25.92;13.38;;;0.60;99.90;;;;;;5030729;28;20036;-79
2021/12/07 14:29:20;;;;;;;22.58;11.82;;;0.60;99.90;;;;;;5050478;28;20032;-80
2021/12/07 14:31:57;;;;;;;21.73;12.90;;;0.60;99.70;;;;;;5046423;28;20247;-79
2021/12/07 14:34:30;;;;;;;26.20;13.25;;;0.60;99.90;;;;;;5029621;28;20624;-76
2021/12/07 14:37:02;;;;;;;22.90;13.07;;;0.60;99.90;;;;;;5047175;28;20017;-77
2021/12/07 14:39:31;;;;;;;26.80;14.32;;;0.60;99.80;;;;;;5049151;28;20052;-78
2021/12/07 14:42:08;;;;;;;28.85;15.07;;;1.70;99.90;;;;;;5032486;28;20029;-78
2021/12/07 14:44:43;;;;;;;27.05;13.80;;;0.50;99.90;;;;;;5048211;28;20017;-75
2021/12/07 14:47:09;;;;;;;25.55;14.35;;;0.50;99.90;;;;;;5032144;28;20021;-77
2021/12/07 14:49:39;;;;;;;29.58;14.40;;;0.60;99.90;;;;;;5044271;28;20056;-77
2021/12/07 14:52:33;;;;;;;32.95;16.15;;;0.60;99.90;;;;;;5029005;28;20029;-75
2021/12/07 14:55:01;;;;;;;33.47;16.20;;;0.70;99.90;;;;;;5027188;28;20104;-74